< < Back
Terminal Aerodrome Forecast


Current Version              Previous Versions:   1  2  3  4  5  6  7  8  9  

Terminal Aerodrome Forecast

621
FTUS44 KBMX 012300
TAFBHM
TAF
KBHM 012335Z 0200/0224 13004KT P6SM FEW070 SCT100
     FM021500 19007KT P6SM SCT040 SCT130=



Latest METAR

413
SAUS70 KWBC 021600
MTRBHM
METAR KBHM 021553Z 15008KT 10SM FEW032 BKN120 27/19 A3009 RMK AO2 SLP182
T02720189


USA.gov is the U.S. government's official web portal to all federal, state and local government web resources and services.